createdAt,value
2023-03-06T00:00:34.485Z,97491.56
2023-03-06T00:03:16.159Z,97499.28
2023-03-06T00:05:44.024Z,97493.59
2023-03-06T00:08:12.270Z,97489.91
2023-03-06T00:10:40.383Z,97489.91
2023-03-06T00:13:11.622Z,97489.09
2023-03-06T00:15:38.939Z,97481.13
2023-03-06T00:18:06.951Z,97477.66
2023-03-06T00:20:35.499Z,97470.69
2023-03-06T00:23:03.034Z,97465.38
2023-03-06T00:25:30.387Z,97458.47
2023-03-06T00:27:58.065Z,97467.03
2023-03-06T00:30:25.683Z,97473.34
2023-03-06T00:32:53.616Z,97473.97
2023-03-06T00:35:20.975Z,97478.88
2023-03-06T00:37:48.808Z,97468.22
2023-03-06T00:40:20.362Z,97471.91
2023-03-06T00:42:47.987Z,97469.84
2023-03-06T00:45:15.653Z,97470.66
2023-03-06T00:47:43.856Z,97472.31
2023-03-06T00:50:11.599Z,97464.13
2023-03-06T00:52:39.515Z,97474.75
2023-03-06T00:55:10.205Z,97473.09
2023-03-06T00:57:38.104Z,97474.75
2023-03-06T01:00:07.941Z,97474.75
2023-03-06T01:02:35.561Z,97462.28
2023-03-06T01:05:03.068Z,97466.78
2023-03-06T01:07:33.932Z,97475.75
2023-03-06T01:10:01.127Z,97483.75
2023-03-06T01:12:28.667Z,97476.38
2023-03-06T01:14:55.924Z,97476.38
2023-03-06T01:17:24.025Z,97485.38
2023-03-06T01:19:51.211Z,97488.03
2023-03-06T01:22:18.992Z,97480.06
2023-03-06T01:24:46.243Z,97476.38
2023-03-06T01:27:13.814Z,97480.06
2023-03-06T01:29:41.096Z,97485.38
2023-03-06T01:32:08.748Z,97485.38
2023-03-06T01:34:36.062Z,97480.06
2023-03-06T01:37:03.568Z,97471.06
2023-03-06T01:39:31.589Z,97475.75
2023-03-06T01:41:59.128Z,97474.75
2023-03-06T01:44:26.539Z,97466.97
2023-03-06T01:46:55.051Z,97466.97
2023-03-06T01:49:30.296Z,97466.97
2023-03-06T01:52:24.102Z,97473.09
2023-03-06T01:55:01.784Z,97466.38
2023-03-06T01:57:35.114Z,97454.72
2023-03-06T02:00:08.891Z,97460.03
2023-03-06T02:02:37.488Z,97453.91
2023-03-06T02:05:05.957Z,97449.38
2023-03-06T02:07:34.987Z,97448.59
2023-03-06T02:10:02.433Z,97447.78
2023-03-06T02:12:30.333Z,97448.59
2023-03-06T02:14:58.648Z,97442.47
2023-03-06T02:17:27.564Z,97456.56
2023-03-06T02:20:13.353Z,97448.59
2023-03-06T02:22:49.902Z,97450.63
2023-03-06T02:25:32.778Z,97439.22
2023-03-06T02:28:01.170Z,97436.34
2023-03-06T02:30:29.909Z,97440.00
2023-03-06T02:32:58.328Z,97445.56
2023-03-06T02:35:31.720Z,97447.38
2023-03-06T02:38:04.635Z,97442.06
2023-03-06T02:40:32.130Z,97437.59
2023-03-06T02:43:00.043Z,97440.81
2023-03-06T02:45:33.778Z,97441.25
2023-03-06T02:48:01.333Z,97441.66
2023-03-06T02:50:29.075Z,97437.34
2023-03-06T02:52:56.606Z,97436.34
2023-03-06T02:55:23.903Z,97436.75
2023-03-06T02:57:51.854Z,97436.75
2023-03-06T03:00:19.716Z,97436.75
2023-03-06T03:02:48.184Z,97436.75
2023-03-06T03:05:15.689Z,97436.75
2023-03-06T03:07:43.771Z,97436.34
2023-03-06T03:10:12.304Z,97436.75
2023-03-06T03:12:40.432Z,97432.28
2023-03-06T03:15:08.855Z,97441.88
2023-03-06T03:17:40.965Z,97435.94
2023-03-06T03:20:12.491Z,97435.13
2023-03-06T03:22:40.245Z,97429.81
2023-03-06T03:25:08.619Z,97424.50
2023-03-06T03:27:36.092Z,97422.88
2023-03-06T03:30:04.418Z,97426.56
2023-03-06T03:32:31.998Z,97425.75
2023-03-06T03:34:59.433Z,97414.28
2023-03-06T03:37:26.951Z,97408.97
2023-03-06T03:39:54.300Z,97409.56
2023-03-06T03:42:21.898Z,97407.97
2023-03-06T03:44:49.902Z,97409.81
2023-03-06T03:47:17.504Z,97408.97
2023-03-06T03:49:44.872Z,97405.31
2023-03-06T03:52:12.332Z,97403.66
2023-03-06T03:54:39.570Z,97391.41
2023-03-06T03:57:07.183Z,97399.19
2023-03-06T03:59:34.419Z,97394.69
2023-03-06T04:02:04.708Z,97393.03
2023-03-06T04:04:32.170Z,97391.22
2023-03-06T04:07:00.573Z,97388.56
2023-03-06T04:09:27.981Z,97391.41
2023-03-06T04:11:55.860Z,97391.41
2023-03-06T04:14:23.212Z,97395.94
2023-03-06T04:16:50.800Z,97393.03
2023-03-06T04:19:18.168Z,97384.47
2023-03-06T04:21:45.714Z,97395.94
2023-03-06T04:24:13.147Z,97388.75
2023-03-06T04:26:40.639Z,97386.09
2023-03-06T04:29:08.052Z,97386.09
2023-03-06T04:31:35.679Z,97378.34
2023-03-06T04:34:02.942Z,97386.09
2023-03-06T04:36:32.911Z,97380.19
2023-03-06T04:39:01.115Z,97383.91
2023-03-06T04:41:28.940Z,97378.56
2023-03-06T04:43:56.374Z,97378.56
2023-03-06T04:46:23.904Z,97376.72
2023-03-06T04:48:51.223Z,97373.47
2023-03-06T04:51:18.794Z,97368.97
2023-03-06T04:53:46.925Z,97370.81
2023-03-06T04:56:14.446Z,97381.66
2023-03-06T04:58:43.387Z,97372.66
2023-03-06T05:01:12.035Z,97368.16
2023-03-06T05:03:39.321Z,97371.03
2023-03-06T05:06:07.198Z,97372.66
2023-03-06T05:08:34.475Z,97365.72
2023-03-06T05:11:02.904Z,97355.88
2023-03-06T05:13:30.168Z,97355.09
2023-03-06T05:16:02.887Z,97354.47
2023-03-06T05:18:30.389Z,97348.16
2023-03-06T05:20:59.900Z,97350.81
2023-03-06T05:23:28.729Z,97349.97
2023-03-06T05:25:56.963Z,97346.50
2023-03-06T05:28:25.897Z,97355.09
2023-03-06T05:30:53.437Z,97351.81
2023-03-06T05:33:20.876Z,97348.16
2023-03-06T05:35:49.032Z,97351.03
2023-03-06T05:38:17.136Z,97346.50
2023-03-06T05:40:45.457Z,97349.16
2023-03-06T05:43:13.016Z,97345.72
2023-03-06T05:45:40.979Z,97343.25
2023-03-06T05:48:13.542Z,97343.25
2023-03-06T05:50:41.094Z,97343.25
2023-03-06T05:53:08.408Z,97341.66
2023-03-06T05:55:36.715Z,97340.59
2023-03-06T05:58:04.142Z,97344.91
2023-03-06T06:00:31.765Z,97334.28
2023-03-06T06:03:01.279Z,97338.53
2023-03-06T06:05:29.441Z,97337.94
2023-03-06T06:07:56.751Z,97342.00
2023-03-06T06:10:24.319Z,97338.53
2023-03-06T06:12:51.604Z,97346.50
2023-03-06T06:15:19.111Z,97342.59
2023-03-06T06:17:46.869Z,97335.69
2023-03-06T06:20:14.824Z,97338.13
2023-03-06T06:22:42.272Z,97344.44
2023-03-06T06:25:10.108Z,97336.28
2023-03-06T06:27:37.395Z,97344.44
2023-03-06T06:30:06.591Z,97351.63
2023-03-06T06:32:34.525Z,97342.59
2023-03-06T06:35:02.153Z,97337.53
2023-03-06T06:37:29.636Z,97346.91
2023-03-06T06:39:57.357Z,97350.56
2023-03-06T06:42:39.013Z,97346.91
2023-03-06T06:45:11.245Z,97343.44
2023-03-06T06:47:41.283Z,97350.38
2023-03-06T06:50:12.918Z,97350.38
2023-03-06T06:52:40.444Z,97353.03
2023-03-06T06:55:08.764Z,97353.63
2023-03-06T06:57:36.076Z,97344.84
2023-03-06T07:00:05.432Z,97347.25
2023-03-06T07:02:32.889Z,97351.56
2023-03-06T07:05:04.713Z,97348.91
2023-03-06T07:07:37.551Z,97350.75
2023-03-06T07:10:07.748Z,97344.41
2023-03-06T07:12:35.288Z,97347.06
2023-03-06T07:15:04.800Z,97344.41
2023-03-06T07:17:32.018Z,97345.19
2023-03-06T07:19:59.932Z,97348.47
2023-03-06T07:22:28.147Z,97350.91
2023-03-06T07:24:56.628Z,97354.63
2023-03-06T07:27:26.062Z,97357.88
2023-03-06T07:29:53.585Z,97357.88
2023-03-06T07:32:21.064Z,97352.56
2023-03-06T07:34:48.996Z,97354.38
2023-03-06T07:37:16.436Z,97357.03
2023-03-06T07:39:44.664Z,97351.50
2023-03-06T07:42:13.936Z,97359.47
2023-03-06T07:44:41.519Z,97364.78
2023-03-06T07:47:08.880Z,97355.22
2023-03-06T07:49:37.300Z,97362.94
2023-03-06T07:52:04.811Z,97365.59
2023-03-06T07:54:32.657Z,97360.28
2023-03-06T07:56:59.990Z,97361.94
2023-03-06T07:59:28.855Z,97368.84
2023-03-06T08:01:56.932Z,97360.06
2023-03-06T08:04:24.440Z,97360.28
2023-03-06T08:06:53.460Z,97360.53
2023-03-06T08:09:20.964Z,97370.91
2023-03-06T08:11:49.364Z,97367.44
2023-03-06T08:14:16.913Z,97370.91
2023-03-06T08:16:44.254Z,97364.78
2023-03-06T08:19:11.833Z,97360.28
2023-03-06T08:21:39.045Z,97365.59
2023-03-06T08:24:07.566Z,97367.25
2023-03-06T08:26:35.732Z,97359.03
2023-03-06T08:29:03.731Z,97355.56
2023-03-06T08:31:36.226Z,97359.63
2023-03-06T08:34:12.529Z,97362.28
2023-03-06T08:36:40.091Z,97365.78
2023-03-06T08:39:08.674Z,97364.72
2023-03-06T08:41:37.173Z,97364.72
2023-03-06T08:44:05.412Z,97363.72
2023-03-06T08:46:33.987Z,97366.38
2023-03-06T08:49:01.902Z,97369.25
2023-03-06T08:51:29.212Z,97364.72
2023-03-06T08:53:57.978Z,97373.50
2023-03-06T08:56:33.652Z,97368.00
2023-03-06T08:59:03.839Z,97368.00
2023-03-06T09:01:34.669Z,97368.78
2023-03-06T09:04:06.435Z,97371.47
2023-03-06T09:06:37.384Z,97369.59
2023-03-06T09:09:05.919Z,97372.84
2023-03-06T09:11:33.725Z,97372.84
2023-03-06T09:14:01.496Z,97371.25
2023-03-06T09:16:28.915Z,97372.66
2023-03-06T09:18:57.782Z,97368.97
2023-03-06T09:21:27.209Z,97367.13
2023-03-06T09:23:55.242Z,97366.06
2023-03-06T09:26:27.996Z,97373.03
2023-03-06T09:29:00.568Z,97354.44
2023-03-06T09:31:28.310Z,97365.06
2023-03-06T09:33:56.724Z,97368.31
2023-03-06T09:36:24.028Z,97365.66
2023-03-06T09:38:51.570Z,97358.03
2023-03-06T09:41:33.348Z,97358.03
2023-03-06T09:44:08.594Z,97367.88
2023-03-06T09:46:45.411Z,97365.81
2023-03-06T09:49:45.486Z,97368.47
2023-03-06T09:52:40.714Z,97358.63
2023-03-06T09:55:13.331Z,97349.84
2023-03-06T09:58:11.338Z,97355.16
2023-03-06T10:00:44.323Z,97351.50
2023-03-06T10:03:31.019Z,97351.50
2023-03-06T10:06:11.371Z,97349.41
2023-03-06T10:08:49.960Z,97354.72
2023-03-06T10:11:24.851Z,97355.56
2023-03-06T10:14:12.107Z,97346.53
2023-03-06T10:16:40.243Z,97345.72
2023-03-06T10:19:14.370Z,97344.09
2023-03-06T10:22:06.132Z,97337.97
2023-03-06T10:24:46.359Z,97341.22
2023-03-06T10:27:45.810Z,97336.72
2023-03-06T10:30:33.859Z,97329.78
2023-03-06T10:33:17.367Z,97321.00
2023-03-06T10:35:48.205Z,97325.25
2023-03-06T10:38:24.788Z,97329.78
2023-03-06T10:41:01.215Z,97322.41
2023-03-06T10:43:28.715Z,97317.06
2023-03-06T10:45:56.089Z,97321.59
2023-03-06T10:48:26.620Z,97318.94
2023-03-06T10:51:22.250Z,97317.69
2023-03-06T10:53:57.213Z,97318.09
2023-03-06T10:56:37.039Z,97311.75
2023-03-06T10:59:07.239Z,97306.44
2023-03-06T11:01:36.036Z,97301.72
2023-03-06T11:04:22.678Z,97300.66
2023-03-06T11:07:19.820Z,97297.84
2023-03-06T11:10:15.645Z,97295.97
2023-03-06T11:12:43.774Z,97289.63
2023-03-06T11:15:23.341Z,97284.31
2023-03-06T11:17:57.569Z,97282.25
2023-03-06T11:20:55.600Z,97274.72
2023-03-06T11:23:37.081Z,97270.78
2023-03-06T11:26:04.935Z,97267.09
2023-03-06T11:28:40.793Z,97264.25
2023-03-06T11:31:14.072Z,97264.25
2023-03-06T11:33:50.188Z,97262.38
2023-03-06T11:36:43.876Z,97270.56
2023-03-06T11:39:37.074Z,97252.75
2023-03-06T11:42:43.121Z,97267.09
2023-03-06T11:45:37.141Z,97264.25
2023-03-06T11:48:38.088Z,97256.25
2023-03-06T11:51:11.211Z,97254.63
2023-03-06T11:53:40.118Z,97250.34
2023-03-06T11:56:19.324Z,97245.03
2023-03-06T11:59:30.193Z,97243.97
2023-03-06T12:02:11.975Z,97248.28
2023-03-06T12:05:07.328Z,97245.84
2023-03-06T12:07:34.623Z,97243.97
2023-03-06T12:10:20.228Z,97234.41
2023-03-06T12:12:57.144Z,97233.56
2023-03-06T12:15:50.310Z,97228.25
2023-03-06T12:18:29.723Z,97227.44
2023-03-06T12:21:07.141Z,97217.84
2023-03-06T12:24:12.539Z,97213.53
2023-03-06T12:27:01.686Z,97211.47
2023-03-06T12:29:53.621Z,97207.22
2023-03-06T12:32:59.683Z,97196.56
2023-03-06T12:35:42.207Z,97199.25
2023-03-06T12:38:22.492Z,97190.41
2023-03-06T12:41:22.822Z,97197.59
2023-03-06T12:43:58.592Z,97190.63
2023-03-06T12:46:27.998Z,97184.50
2023-03-06T12:49:05.364Z,97187.38
2023-03-06T12:51:34.375Z,97187.38
2023-03-06T12:54:03.244Z,97182.06
2023-03-06T12:56:32.269Z,97182.06
2023-03-06T12:59:03.394Z,97171.44
2023-03-06T13:02:13.254Z,97171.44
2023-03-06T13:05:06.243Z,97160.38
2023-03-06T13:07:49.083Z,97158.72
2023-03-06T13:10:33.688Z,97158.72
2023-03-06T13:13:26.525Z,97155.84
2023-03-06T13:16:18.639Z,97153.41
2023-03-06T13:18:51.349Z,97148.94
2023-03-06T13:21:44.303Z,97149.72
2023-03-06T13:24:23.529Z,97140.94
2023-03-06T13:26:58.388Z,97135.63
2023-03-06T13:29:37.732Z,97139.91
2023-03-06T13:32:17.026Z,97137.47
2023-03-06T13:34:49.958Z,97139.31
2023-03-06T13:37:17.475Z,97141.13
2023-03-06T13:39:59.905Z,97142.19
2023-03-06T13:42:30.529Z,97142.19
2023-03-06T13:45:08.903Z,97137.69
2023-03-06T13:50:44.399Z,97136.28
2023-03-06T13:53:40.734Z,97131.97
2023-03-06T13:56:25.140Z,97127.72
2023-03-06T13:59:29.681Z,97133.03
2023-03-06T14:02:22.609Z,97133.03
2023-03-06T14:04:57.901Z,97119.97
2023-03-06T14:07:30.904Z,97117.09
2023-03-06T14:10:01.144Z,97117.09
2023-03-06T14:12:34.024Z,97122.63
2023-03-06T14:15:15.760Z,97123.66
2023-03-06T14:18:01.934Z,97118.34
2023-03-06T14:20:43.861Z,97126.09
2023-03-06T14:23:23.379Z,97122.88
2023-03-06T14:26:00.784Z,97128.19
2023-03-06T14:28:30.822Z,97125.94
2023-03-06T14:31:00.359Z,97121.44
2023-03-06T14:33:50.308Z,97123.28
2023-03-06T14:36:20.823Z,97122.72
2023-03-06T14:38:58.189Z,97118.19
2023-03-06T14:41:34.542Z,97123.28
2023-03-06T14:44:23.147Z,97129.88
2023-03-06T14:46:51.986Z,97140.72
2023-03-06T14:49:21.710Z,97146.84
2023-03-06T14:51:51.976Z,97160.97
2023-03-06T14:54:23.417Z,97163.03
2023-03-06T14:56:53.577Z,97159.34
2023-03-06T14:59:26.537Z,97152.41
2023-03-06T15:02:01.046Z,97165.09
2023-03-06T15:04:44.387Z,97166.13
2023-03-06T15:07:17.643Z,97162.44
2023-03-06T15:09:49.240Z,97158.16
2023-03-06T15:12:20.865Z,97152.84
2023-03-06T15:14:59.012Z,97155.75
2023-03-06T15:17:30.750Z,97159.41
2023-03-06T15:20:00.266Z,97160.22
2023-03-06T15:22:43.441Z,97153.28
2023-03-06T15:25:27.282Z,97161.06
2023-03-06T15:28:00.557Z,97154.09
2023-03-06T15:30:34.461Z,97160.00
2023-03-06T15:33:22.043Z,97158.16
2023-03-06T15:36:00.788Z,97155.50
2023-03-06T15:38:42.351Z,97161.66
2023-03-06T15:41:32.374Z,97152.41
2023-03-06T15:44:01.580Z,97162.00
2023-03-06T15:46:29.747Z,97151.16
2023-03-06T15:49:01.111Z,97167.69
2023-03-06T15:51:29.881Z,97166.41
2023-03-06T15:54:09.866Z,97167.47
2023-03-06T15:56:41.747Z,97168.06
2023-03-06T15:59:21.787Z,97165.97
2023-03-06T16:01:50.556Z,97165.97
2023-03-06T16:04:19.796Z,97156.38
2023-03-06T16:06:47.162Z,97160.44
2023-03-06T16:09:14.713Z,97159.63
2023-03-06T16:11:44.773Z,97156.97
2023-03-06T16:14:21.303Z,97158.34
2023-03-06T16:16:49.918Z,97157.56
2023-03-06T16:19:28.201Z,97152.81
2023-03-06T16:21:57.366Z,97150.59
2023-03-06T16:24:26.251Z,97151.44
2023-03-06T16:26:54.880Z,97154.91
2023-03-06T16:29:25.887Z,97155.47
2023-03-06T16:31:55.453Z,97154.91
2023-03-06T16:34:23.516Z,97153.84
2023-03-06T16:36:51.469Z,97159.16
2023-03-06T16:39:21.762Z,97147.72
2023-03-06T16:41:50.482Z,97153.84
2023-03-06T16:44:18.821Z,97150.16
2023-03-06T16:46:48.763Z,97146.91
2023-03-06T16:49:23.829Z,97144.84
2023-03-06T16:51:51.770Z,97148.53
2023-03-06T16:54:20.235Z,97146.91
2023-03-06T16:56:47.519Z,97139.53
2023-03-06T16:59:15.059Z,97130.75
2023-03-06T17:01:43.368Z,97146.69
2023-03-06T17:04:11.321Z,97146.47
2023-03-06T17:06:39.667Z,97139.53
2023-03-06T17:09:07.559Z,97135.81
2023-03-06T17:11:38.513Z,97157.09
2023-03-06T17:14:06.932Z,97152.59
2023-03-06T17:16:36.469Z,97157.09
2023-03-06T17:19:05.471Z,97164.03
2023-03-06T17:21:35.344Z,97159.56
2023-03-06T17:24:03.734Z,97158.94
2023-03-06T17:26:32.726Z,97163.25
2023-03-06T17:29:00.303Z,97159.56
2023-03-06T17:31:28.713Z,97160.38
2023-03-06T17:34:00.483Z,97156.91
2023-03-06T17:36:29.016Z,97155.63
2023-03-06T17:38:58.638Z,97147.66
2023-03-06T17:41:26.325Z,97154.63
2023-03-06T17:43:58.181Z,97157.03
2023-03-06T17:46:25.948Z,97158.88
2023-03-06T17:48:54.708Z,97160.75
2023-03-06T17:51:22.064Z,97153.56
2023-03-06T17:53:49.711Z,97154.16
2023-03-06T17:56:17.067Z,97162.13
2023-03-06T17:58:44.966Z,97163.19
2023-03-06T18:01:20.908Z,97170.13
2023-03-06T18:03:50.249Z,97176.25
2023-03-06T18:06:18.756Z,97165.59
2023-03-06T18:08:46.826Z,97177.06
2023-03-06T18:11:14.730Z,97170.91
2023-03-06T18:13:44.908Z,97170.69
2023-03-06T18:16:14.510Z,97170.91
2023-03-06T18:18:42.280Z,97170.91
2023-03-06T18:21:12.704Z,97177.06
2023-03-06T18:23:41.609Z,97177.06
2023-03-06T18:26:18.601Z,97180.28
2023-03-06T18:28:48.680Z,97177.06
2023-03-06T18:31:17.137Z,97166.44
2023-03-06T18:33:47.629Z,97181.94
2023-03-06T18:36:15.881Z,97181.94
2023-03-06T18:38:45.441Z,97178.22
2023-03-06T18:41:13.513Z,97178.22
2023-03-06T18:43:42.331Z,97174.53
2023-03-06T18:46:10.090Z,97179.84
2023-03-06T18:48:37.976Z,97181.72
2023-03-06T18:51:10.404Z,97183.53
2023-03-06T18:53:39.945Z,97184.59
2023-03-06T18:56:10.550Z,97186.19
2023-03-06T18:58:37.998Z,97189.69
2023-03-06T19:01:07.255Z,97181.94
2023-03-06T19:03:35.258Z,97186.44
2023-03-06T19:06:09.270Z,97185.59
2023-03-06T19:08:38.637Z,97174.97
2023-03-06T19:11:08.453Z,97177.88
2023-03-06T19:13:36.902Z,97170.13
2023-03-06T19:16:05.444Z,97162.72
2023-03-06T19:18:33.421Z,97165.59
2023-03-06T19:21:11.765Z,97164.78
2023-03-06T19:23:39.545Z,97175.44
2023-03-06T19:26:07.682Z,97173.81
2023-03-06T19:28:37.571Z,97168.50
2023-03-06T19:31:13.381Z,97161.53
2023-03-06T19:33:42.485Z,97164.22
2023-03-06T19:36:12.287Z,97158.09
2023-03-06T19:38:40.524Z,97159.94
2023-03-06T19:41:13.590Z,97150.09
2023-03-06T19:43:42.655Z,97154.63
2023-03-06T19:46:13.901Z,97149.31
2023-03-06T19:48:42.294Z,97150.91
2023-03-06T19:51:10.712Z,97155.63
2023-03-06T19:53:39.811Z,97151.13
2023-03-06T19:56:08.556Z,97146.06
2023-03-06T19:58:36.033Z,97141.53
2023-03-06T20:01:09.935Z,97145.44
2023-03-06T20:03:37.448Z,97143.78
2023-03-06T20:06:09.163Z,97146.69
2023-03-06T20:08:36.783Z,97146.31
2023-03-06T20:11:04.598Z,97149.00
2023-03-06T20:13:31.896Z,97147.34
2023-03-06T20:16:02.879Z,97146.78
2023-03-06T20:18:30.205Z,97144.94
2023-03-06T20:21:02.276Z,97145.16
2023-03-06T20:23:30.258Z,97148.84
2023-03-06T20:26:09.658Z,97151.28
2023-03-06T20:28:39.318Z,97149.44
2023-03-06T20:31:11.642Z,97147.81
2023-03-06T20:33:39.633Z,97147.00
2023-03-06T20:36:16.008Z,97146.19
2023-03-06T20:38:44.229Z,97148.03
2023-03-06T20:41:20.397Z,97146.63
2023-03-06T20:43:48.249Z,97144.56
2023-03-06T20:46:16.374Z,97146.63
2023-03-06T20:48:44.145Z,97151.94
2023-03-06T20:51:14.616Z,97153.00
2023-03-06T20:53:41.854Z,97150.34
2023-03-06T20:56:13.827Z,97158.06
2023-03-06T20:58:41.207Z,97151.94
2023-03-06T21:01:08.907Z,97149.50
2023-03-06T21:03:36.793Z,97148.69
2023-03-06T21:06:05.653Z,97147.09
2023-03-06T21:08:32.971Z,97147.09
2023-03-06T21:11:00.483Z,97146.28
2023-03-06T21:13:28.162Z,97142.78
2023-03-06T21:15:55.735Z,97136.47
2023-03-06T21:18:23.252Z,97142.00
2023-03-06T21:20:50.914Z,97140.38
2023-03-06T21:23:18.175Z,97140.13
2023-03-06T21:25:50.245Z,97147.53
2023-03-06T21:28:18.343Z,97142.19
2023-03-06T21:30:46.219Z,97147.53
2023-03-06T21:33:16.064Z,97137.72
2023-03-06T21:35:45.424Z,97147.53
2023-03-06T21:38:14.126Z,97143.25
2023-03-06T21:40:42.647Z,97142.19
2023-03-06T21:43:10.374Z,97137.72
2023-03-06T21:45:38.088Z,97142.19
2023-03-06T21:48:05.616Z,97143.25
2023-03-06T21:50:33.547Z,97138.97
2023-03-06T21:53:00.937Z,97142.66
2023-03-06T21:55:28.541Z,97138.97
2023-03-06T21:57:56.363Z,97138.97
2023-03-06T22:00:25.658Z,97143.84
2023-03-06T22:02:53.090Z,97144.88
2023-03-06T22:05:20.694Z,97141.41
2023-03-06T22:07:49.573Z,97133.63
2023-03-06T22:10:17.273Z,97136.28
2023-03-06T22:12:45.806Z,97136.09
2023-03-06T22:15:13.321Z,97131.81
2023-03-06T22:17:41.552Z,97124.66
2023-03-06T22:20:09.948Z,97122.19
2023-03-06T22:22:37.268Z,97121.41
2023-03-06T22:25:05.149Z,97126.50
2023-03-06T22:27:32.745Z,97121.41
2023-03-06T22:30:00.723Z,97123.00
2023-03-06T22:32:28.050Z,97124.06
2023-03-06T22:34:55.639Z,97124.28
2023-03-06T22:37:22.857Z,97122.66
2023-03-06T22:39:50.362Z,97133.28
2023-03-06T22:42:17.562Z,97121.84
2023-03-06T22:44:45.199Z,97126.13
2023-03-06T22:47:12.564Z,97127.19
2023-03-06T22:49:40.208Z,97122.88
2023-03-06T22:52:07.437Z,97123.69
2023-03-06T22:54:34.925Z,97128.41
2023-03-06T22:57:02.155Z,97123.69
2023-03-06T22:59:29.707Z,97124.72
2023-03-06T23:01:58.498Z,97130.03
2023-03-06T23:04:26.066Z,97120.22
2023-03-06T23:06:53.312Z,97119.19
2023-03-06T23:09:22.346Z,97124.28
2023-03-06T23:11:50.234Z,97121.84
2023-03-06T23:14:19.503Z,97123.47
2023-03-06T23:16:46.816Z,97116.53
2023-03-06T23:19:14.379Z,97122.41
2023-03-06T23:21:41.811Z,97126.72
2023-03-06T23:24:09.500Z,97121.41
2023-03-06T23:26:37.059Z,97121.41
2023-03-06T23:29:04.591Z,97124.06
2023-03-06T23:31:32.209Z,97128.31
2023-03-06T23:34:02.141Z,97121.41
2023-03-06T23:36:30.413Z,97118.75
2023-03-06T23:38:58.713Z,97122.00
2023-03-06T23:41:26.085Z,97126.72
2023-03-06T23:43:55.278Z,97123.00
2023-03-06T23:46:22.730Z,97121.41
2023-03-06T23:48:50.535Z,97125.06
2023-03-06T23:51:21.696Z,97133.63
2023-03-06T23:53:55.704Z,97130.38
2023-03-06T23:56:24.596Z,97126.13
2023-03-06T23:58:52.405Z,97119.75
